Terminal Aerodrome Forecast
Issued by NWS Grand Forks, ND

Home | Current Version | Previous Version | Graphics & Text | Print | Product List | Glossary On
Versions: 1 2 3 4 5 6 7 8 9 10 11 12 13
562
FTUS43 KFGF 270520
TAFGFK
TAF
KGFK 270520Z 2706/2806 02008KT P6SM VCSH BKN120
     FM270900 01008KT P6SM BKN150
     FM271600 01007KT P6SM SCT150=

USA.gov is the U.S. government's official web portal to all federal, state and local government web resources and services.